Main page
METAR-TAF:

METAR-TAF

Airports :

RAF Coningsby

Coningsby, England

latitude: 53-05N, longitude: 000-10W, elevation: 7 m

Current weather observation

The report was made 48 minutes ago, at 23:50 UTC
Wind 10 kt from the North/Northeast
Temperature 9°C
Humidity 93%
Pressure 1025 hPa
Visibility 10 km or more

METAR: EGXC 232350Z AUTO 02010KT 9999 // OVC006/// 09/08 Q1025

Time: 01:38 (00:38 UTC)

Forecast

The report was made 2 hours and 0 minutes ago, at 22:38 UTC
Forecast valid from 24 at 00 UTC to 24 at 18 UTC
Wind 10 kt from the North/Northeast
Visibility 10 km or more
Broken clouds at a height of 600 ft
Probability 30%
from 24 at 00 UTC to 24 at 08 UTC
Visibility: 5000 m
Broken clouds at a height of 400 ft
haze
Becoming
from 24 at 07 UTC to 24 at 10 UTC
Few clouds at a height of 1800 ft

TAF: EGXC 232238Z 2400/2418 03010KT 9999 BKN006 PROB30 2400/2408 5000 HZ BKN004 BECMG 2407/2410 FEW018

Weather observations and forecasts of more than 4000 airports (METAR and TAF reports).

The available stations are represented by yellow and red dots on the map.

Hover mouse over dot to see the name of the station.

Then click to see weather observations and forecasts.

To change the map : click on the green buttons with a black cross to zoom in, on the green button with a dash to zoom out, or on the green arrows for adjacent maps.


METAR-TAF: